Terminal Aerodrome Forecast
Issued by NWS Atlanta, GA

Home | Current Version | Previous Version | Text Only | Print | Product List | Glossary On
Versions: 1 2 3 4 5 6 7 8 9 10 11 12 13 14 15 16 17 18 19 20 21 22 23 24 25 26
650
FTUS42 KFFC 202347
TAFMCN
TAF
KMCN 202347Z 2100/2124 16004KT P6SM SCT060
     FM210200 VRB03KT P6SM BKN040
     FM210600 VRB03KT P6SM VCSH SCT012 BKN025
     FM210900 21003KT 5SM BR VCSH BKN007
     FM211200 20003KT 3SM -TSRA BKN004 OVC015CB
     FM211500 18004KT 5SM -TSRA BKN007 OVC025CB
     FM212200 17006KT 5SM BR VCSH BKN012=

USA.gov is the U.S. government's official web portal to all federal, state and local government web resources and services.